map of ATM home
Great Circle Mapper logo
ATM - Airport
Location
City:  Altamira, Pará, Brazil
ICAO / IATA:SBHT / ATM

Details
Type:Airport (Aerodrome, Airfield)
Latitude:3°15'14"S (-3.253905)
Longitude:52°15'14"W (-52.253977)
Datum:WGS 1984
Elevation:368 ft (112 m)
Runways:1
Longest:6572 × 125 ft (2003 × 38 m), paved

Time
Time Zone:UTC-4
Local Time:

Weather
METAR:SBHT 210100Z 00000KT CAVOK 23/23 Q1012

Related Locations
Nearby:
Farthest:MNA: 12351 mi / 19877 km
Melangguane, North Sulawesi, ID

Find:

   beyond  
but within

Other Information
Maps:
NOTAMs:
Links:
Sources:

  
flag of Brazil
flag of Pará
  

Sectional Chart

Flight Planning
at skyvector.com

Satellite Image

Google Maps Satellite View

 

Copyright © 2004-2014 Karl L. Swartz. All rights reserved.
The Great Circle Mapper name and logo are trademarks of the Great Circle Mapper.
All other trademarks mentioned herein belong to their respective owners.
Please see credits for attibutions and further copyright information.

  Follow gcmap on Facebook Follow gcmap on Twitter

hCard Microformat

Geo Microformat